DLH2DS EDDF-EDDS
Flight info
| Callsign | DLH2DS |
|---|---|
| Flight time | 0h 23m |
| Altitude | 17000 |
| Route | ANEKI2L/18 ANEKI Y163 NEKLO Y171 INKAM N850 KRH T128 BADSO BADSO2A |
| Aircraft | A320/M-SDE3FGHIRWY/LB1 |
Departure
| Time | 2026-05-07 18:42 |
|---|---|
| Airport | Frankfurt Main Airport (EDDF) |
Arrival
| Time | 2026-05-07 19:05 |
|---|---|
| Airport | Stuttgart Airport (EDDS) |
| Time | Latitude | Longitude | Altitude | Speed | Heading |
|---|---|---|---|---|---|
| 2026-05-07 18:20 | 50.04120 | 8.55822 | 357 ft | 0 kts | 160° |
| 2026-05-07 18:35 | 50.04118 | 8.55823 | 352 ft | 3 kts | 160° |
| 2026-05-07 18:35 | 50.04052 | 8.55853 | 351 ft | 12 kts | 181° |
| 2026-05-07 18:36 | 50.04003 | 8.55755 | 355 ft | 12 kts | 252° |
| 2026-05-07 18:36 | 50.03976 | 8.55634 | 353 ft | 12 kts | 249° |
| 2026-05-07 18:36 | 50.03947 | 8.55520 | 354 ft | 10 kts | 248° |
| 2026-05-07 18:36 | 50.03919 | 8.55406 | 352 ft | 17 kts | 249° |
| 2026-05-07 18:37 | 50.03864 | 8.55169 | 354 ft | 25 kts | 250° |
| 2026-05-07 18:37 | 50.03800 | 8.54907 | 351 ft | 27 kts | 248° |
| 2026-05-07 18:37 | 50.03725 | 8.54591 | 350 ft | 35 kts | 250° |
| 2026-05-07 18:37 | 50.03642 | 8.54246 | 346 ft | 27 kts | 249° |
| 2026-05-07 18:38 | 50.03572 | 8.53957 | 338 ft | 30 kts | 249° |
| 2026-05-07 18:38 | 50.03498 | 8.53639 | 337 ft | 32 kts | 251° |
| 2026-05-07 18:38 | 50.03418 | 8.53307 | 336 ft | 33 kts | 247° |
| 2026-05-07 18:38 | 50.03336 | 8.52968 | 335 ft | 30 kts | 250° |
| 2026-05-07 18:39 | 50.03259 | 8.52671 | 332 ft | 22 kts | 233° |
| 2026-05-07 18:39 | 50.03135 | 8.52602 | 333 ft | 13 kts | 177° |
| 2026-05-07 18:39 | 50.03042 | 8.52597 | 335 ft | 16 kts | 179° |
| 2026-05-07 18:39 | 50.02922 | 8.52599 | 332 ft | 17 kts | 180° |
| 2026-05-07 18:40 | 50.02855 | 8.52599 | 335 ft | 0 kts | 180° |
| 2026-05-07 18:41 | 50.02829 | 8.52599 | 335 ft | 17 kts | 180° |
| 2026-05-07 18:41 | 50.02411 | 8.52605 | 333 ft | 99 kts | 179° |
| 2026-05-07 18:41 | 50.01520 | 8.52617 | 334 ft | 158 kts | 178° |
| 2026-05-07 18:41 | 50.00310 | 8.52651 | 677 ft | 179 kts | 176° |
| 2026-05-07 18:42 | 49.99057 | 8.52716 | 1521 ft | 178 kts | 176° |
| 2026-05-07 18:42 | 49.97835 | 8.52828 | 2365 ft | 177 kts | 176° |
| 2026-05-07 18:42 | 49.96620 | 8.52933 | 3150 ft | 178 kts | 176° |
| 2026-05-07 18:42 | 49.95315 | 8.53043 | 3604 ft | 197 kts | 177° |
| 2026-05-07 18:43 | 49.93849 | 8.53142 | 3989 ft | 224 kts | 178° |
| 2026-05-07 18:43 | 49.92223 | 8.53237 | 4060 ft | 237 kts | 178° |
| 2026-05-07 18:43 | 49.90562 | 8.53335 | 4225 ft | 242 kts | 178° |
| 2026-05-07 18:43 | 49.88883 | 8.53436 | 5218 ft | 242 kts | 178° |
| 2026-05-07 18:44 | 49.87125 | 8.53545 | 5804 ft | 265 kts | 179° |
| 2026-05-07 18:44 | 49.85194 | 8.53668 | 6328 ft | 290 kts | 179° |
| 2026-05-07 18:44 | 49.83093 | 8.53803 | 6809 ft | 312 kts | 179° |
| 2026-05-07 18:44 | 49.80891 | 8.53953 | 7594 ft | 321 kts | 178° |
| 2026-05-07 18:45 | 49.78643 | 8.54109 | 8503 ft | 326 kts | 180° |
| 2026-05-07 18:45 | 49.76375 | 8.53922 | 9427 ft | 329 kts | 186° |
| 2026-05-07 18:45 | 49.74856 | 8.53715 | 10036 ft | 332 kts | 186° |
| 2026-05-07 18:45 | 49.72533 | 8.53397 | 10881 ft | 336 kts | 186° |
| 2026-05-07 18:46 | 49.70190 | 8.53079 | 11720 ft | 340 kts | 186° |
| 2026-05-07 18:46 | 49.67824 | 8.52766 | 12551 ft | 344 kts | 186° |
| 2026-05-07 18:46 | 49.65413 | 8.52452 | 12933 ft | 347 kts | 186° |
| 2026-05-07 18:46 | 49.62223 | 8.52042 | 13055 ft | 347 kts | 186° |
| 2026-05-07 18:47 | 49.60594 | 8.51831 | 13059 ft | 347 kts | 186° |
| 2026-05-07 18:47 | 49.58179 | 8.51515 | 13255 ft | 352 kts | 186° |
| 2026-05-07 18:47 | 49.55737 | 8.51190 | 14141 ft | 353 kts | 186° |
| 2026-05-07 18:47 | 49.52469 | 8.50754 | 15150 ft | 357 kts | 186° |
| 2026-05-07 18:48 | 49.50795 | 8.50532 | 15641 ft | 359 kts | 186° |
| 2026-05-07 18:48 | 49.48291 | 8.50202 | 16372 ft | 363 kts | 186° |
| 2026-05-07 18:48 | 49.45762 | 8.49869 | 16889 ft | 367 kts | 186° |
| 2026-05-07 18:48 | 49.43212 | 8.49535 | 17035 ft | 368 kts | 186° |
| 2026-05-07 18:49 | 49.40631 | 8.49199 | 17057 ft | 375 kts | 186° |
| 2026-05-07 18:49 | 49.38064 | 8.48867 | 17058 ft | 376 kts | 186° |
| 2026-05-07 18:49 | 49.35455 | 8.48532 | 17056 ft | 376 kts | 186° |
| 2026-05-07 18:49 | 49.32854 | 8.48199 | 17056 ft | 376 kts | 186° |
| 2026-05-07 18:50 | 49.30235 | 8.48001 | 17060 ft | 378 kts | 178° |
| 2026-05-07 18:50 | 49.27667 | 8.48898 | 17060 ft | 381 kts | 160° |
| 2026-05-07 18:50 | 49.25307 | 8.50762 | 17058 ft | 383 kts | 148° |
| 2026-05-07 18:50 | 49.23105 | 8.53069 | 17061 ft | 384 kts | 148° |
| 2026-05-07 18:51 | 49.20885 | 8.55327 | 17060 ft | 384 kts | 145° |
| 2026-05-07 18:51 | 49.18986 | 8.58211 | 17060 ft | 387 kts | 127° |
| 2026-05-07 18:51 | 49.17618 | 8.61759 | 17060 ft | 388 kts | 120° |
| 2026-05-07 18:51 | 49.16319 | 8.65375 | 17060 ft | 388 kts | 120° |
| 2026-05-07 18:52 | 49.15022 | 8.68992 | 17050 ft | 386 kts | 120° |
| 2026-05-07 18:52 | 49.13734 | 8.72584 | 16363 ft | 387 kts | 120° |
| 2026-05-07 18:52 | 49.12441 | 8.76173 | 15893 ft | 382 kts | 120° |
| 2026-05-07 18:52 | 49.11162 | 8.79717 | 15364 ft | 379 kts | 120° |
| 2026-05-07 18:53 | 49.09891 | 8.83232 | 14835 ft | 377 kts | 120° |
| 2026-05-07 18:53 | 49.08649 | 8.86653 | 14332 ft | 373 kts | 119° |
| 2026-05-07 18:53 | 49.07383 | 8.90133 | 13901 ft | 367 kts | 119° |
| 2026-05-07 18:53 | 49.06160 | 8.93493 | 13343 ft | 365 kts | 119° |
| 2026-05-07 18:54 | 49.04917 | 8.96909 | 12730 ft | 363 kts | 119° |
| 2026-05-07 18:54 | 49.03716 | 9.00199 | 12212 ft | 359 kts | 120° |
| 2026-05-07 18:54 | 49.02508 | 9.03507 | 11693 ft | 355 kts | 120° |
| 2026-05-07 18:54 | 49.01316 | 9.06771 | 11175 ft | 351 kts | 120° |
| 2026-05-07 18:55 | 49.00133 | 9.10007 | 10657 ft | 348 kts | 120° |
| 2026-05-07 18:55 | 48.98959 | 9.13212 | 10143 ft | 345 kts | 120° |
| 2026-05-07 18:55 | 48.97794 | 9.16402 | 9602 ft | 342 kts | 120° |
| 2026-05-07 18:55 | 48.96646 | 9.19550 | 9045 ft | 339 kts | 120° |
| 2026-05-07 18:56 | 48.95504 | 9.22676 | 8496 ft | 336 kts | 120° |
| 2026-05-07 18:56 | 48.94371 | 9.25771 | 7951 ft | 333 kts | 120° |
| 2026-05-07 18:56 | 48.93245 | 9.28843 | 7426 ft | 331 kts | 120° |
| 2026-05-07 18:56 | 48.92140 | 9.31866 | 7102 ft | 322 kts | 118° |
| 2026-05-07 18:57 | 48.91367 | 9.34976 | 6969 ft | 307 kts | 105° |
| 2026-05-07 18:57 | 48.90853 | 9.38055 | 6846 ft | 293 kts | 104° |
| 2026-05-07 18:57 | 48.90381 | 9.40998 | 6722 ft | 280 kts | 104° |
| 2026-05-07 18:57 | 48.89931 | 9.43817 | 6592 ft | 268 kts | 104° |
| 2026-05-07 18:58 | 48.89507 | 9.46469 | 6475 ft | 256 kts | 104° |
| 2026-05-07 18:58 | 48.89087 | 9.49097 | 6221 ft | 250 kts | 104° |
| 2026-05-07 18:58 | 48.88522 | 9.51526 | 5888 ft | 246 kts | 124° |
| 2026-05-07 18:58 | 48.87295 | 9.53246 | 5539 ft | 240 kts | 156° |
| 2026-05-07 18:59 | 48.85689 | 9.53777 | 5210 ft | 236 kts | 180° |
| 2026-05-07 18:59 | 48.84041 | 9.53757 | 4845 ft | 237 kts | 184° |
| 2026-05-07 18:59 | 48.82391 | 9.53662 | 4499 ft | 236 kts | 184° |
| 2026-05-07 18:59 | 48.80753 | 9.53549 | 4163 ft | 236 kts | 184° |
| 2026-05-07 19:00 | 48.79123 | 9.53375 | 4008 ft | 234 kts | 192° |
| 2026-05-07 19:00 | 48.77586 | 9.52601 | 4005 ft | 233 kts | 214° |
| 2026-05-07 19:00 | 48.76313 | 9.51087 | 4017 ft | 233 kts | 223° |
| 2026-05-07 19:00 | 48.75248 | 9.49259 | 4015 ft | 231 kts | 236° |
| 2026-05-07 19:01 | 48.74317 | 9.47297 | 4012 ft | 224 kts | 235° |
| 2026-05-07 19:01 | 48.73483 | 9.45378 | 3985 ft | 215 kts | 246° |
| 2026-05-07 19:01 | 48.72960 | 9.43276 | 3781 ft | 211 kts | 255° |
| 2026-05-07 19:01 | 48.72560 | 9.41195 | 3522 ft | 200 kts | 256° |
| 2026-05-07 19:02 | 48.72199 | 9.39262 | 3252 ft | 185 kts | 256° |
| 2026-05-07 19:02 | 48.71860 | 9.37449 | 3004 ft | 173 kts | 256° |
| 2026-05-07 19:02 | 48.71541 | 9.35750 | 2769 ft | 161 kts | 256° |
| 2026-05-07 19:02 | 48.71245 | 9.34175 | 2551 ft | 151 kts | 256° |
| 2026-05-07 19:03 | 48.70966 | 9.32692 | 2380 ft | 144 kts | 256° |
| 2026-05-07 19:03 | 48.70695 | 9.31251 | 2167 ft | 141 kts | 256° |
| 2026-05-07 19:03 | 48.70428 | 9.29830 | 1970 ft | 140 kts | 256° |
| 2026-05-07 19:03 | 48.70159 | 9.28415 | 1779 ft | 140 kts | 255° |
| 2026-05-07 19:04 | 48.69886 | 9.26998 | 1608 ft | 140 kts | 255° |
| 2026-05-07 19:04 | 48.69615 | 9.25578 | 1466 ft | 140 kts | 255° |
| 2026-05-07 19:04 | 48.69359 | 9.24155 | 1326 ft | 141 kts | 256° |
| 2026-05-07 19:04 | 48.69113 | 9.22824 | 1290 ft | 113 kts | 253° |
| 2026-05-07 19:05 | 48.68952 | 9.21993 | 1285 ft | 47 kts | 255° |
| 2026-05-07 19:05 | 48.68970 | 9.21593 | 1285 ft | 27 kts | 283° |
| 2026-05-07 19:05 | 48.68986 | 9.21490 | 1285 ft | 6 kts | 283° |
| 2026-05-07 19:05 | 48.68995 | 9.21428 | 1288 ft | 6 kts | 283° |
| 2026-05-07 19:06 | 48.69002 | 9.21368 | 1285 ft | 5 kts | 270° |
| 2026-05-07 19:06 | 48.68979 | 9.21279 | 1287 ft | 1 kts | 226° |
| 2026-05-07 19:06 | 48.68978 | 9.21275 | 1286 ft | 2 kts | 245° |
| 2026-05-07 19:07 | 48.68971 | 9.21202 | 1287 ft | 7 kts | 261° |
| 2026-05-07 19:07 | 48.68962 | 9.21130 | 1285 ft | 7 kts | 257° |
| 2026-05-07 19:07 | 48.68950 | 9.21063 | 1285 ft | 8 kts | 252° |
| 2026-05-07 19:07 | 48.68924 | 9.20932 | 1286 ft | 14 kts | 254° |
| 2026-05-07 19:08 | 48.68898 | 9.20798 | 1287 ft | 13 kts | 254° |
| 2026-05-07 19:08 | 48.68876 | 9.20677 | 1285 ft | 11 kts | 255° |
| 2026-05-07 19:08 | 48.68851 | 9.20542 | 1287 ft | 19 kts | 253° |
| 2026-05-07 19:08 | 48.68811 | 9.20337 | 1287 ft | 21 kts | 253° |
| 2026-05-07 19:09 | 48.68768 | 9.20110 | 1287 ft | 24 kts | 254° |
| 2026-05-07 19:09 | 48.68768 | 9.19905 | 1288 ft | 16 kts | 255° |
| 2026-05-07 19:09 | 48.68738 | 9.19751 | 1287 ft | 15 kts | 254° |
| 2026-05-07 19:09 | 48.68711 | 9.19611 | 1288 ft | 13 kts | 254° |
| 2026-05-07 19:10 | 48.68688 | 9.19482 | 1285 ft | 12 kts | 255° |
| 2026-05-07 19:10 | 48.68658 | 9.19328 | 1288 ft | 18 kts | 253° |
| 2026-05-07 19:10 | 48.68668 | 9.19172 | 1287 ft | 15 kts | 326° |
| 2026-05-07 19:10 | 48.68763 | 9.19181 | 1287 ft | 16 kts | 56° |
| 2026-05-07 19:11 | 48.68792 | 9.19318 | 1288 ft | 11 kts | 74° |
| 2026-05-07 19:11 | 48.68825 | 9.19385 | 1285 ft | 6 kts | 349° |
| 2026-05-07 19:11 | 48.68860 | 9.19368 | 1289 ft | 3 kts | 346° |
| 2026-05-07 19:11 | 48.68874 | 9.19363 | 1287 ft | 0 kts | 345° |